Time;durP1;ratioP1;P1;durP2;ratioP2;P2;SDS_P1;SDS_P2;PMS_P1;PMS_P2;Temp;Humidity;BMP_temperature;BMP_pressure;BME280_temperature;BME280_humidity;BME280_pressure;Samples;Min_cycle;Max_cycle;Signal;HPM_P1;HPM_P2
2021/11/27 00:02:00;;;;;;;;;;;;;;;11.17;52.40;98361.88;4982308;28;121093;-58
2021/11/27 00:04:26;;;;;;;;;;;;;;;11.17;52.43;98364.56;5000050;27;127773;-67
2021/11/27 00:06:52;;;;;;;;;;;;;;;11.19;52.41;98358.84;5004370;27;119362;-57
2021/11/27 00:09:18;;;;;;;;;;;;;;;11.19;52.46;98354.22;4985782;27;128026;-58
2021/11/27 00:11:44;;;;;;;;;;;;;;;11.19;52.70;98351.53;5005040;27;107463;-59
2021/11/27 00:14:11;;;;;;;;;;;;;;;11.20;52.71;98350.44;5004531;27;109401;-66
2021/11/27 00:16:37;;;;;;;;;;;;;;;11.19;52.76;98351.53;5005998;27;97793;-66
2021/11/27 00:19:04;;;;;;;;;;;;;;;11.20;52.66;98341.53;5004804;27;97820;-58
2021/11/27 00:21:30;;;;;;;;;;;;;;;11.21;52.71;98352.00;5004901;27;98492;-58
2021/11/27 00:23:56;;;;;;;;;;;;;;;11.20;52.71;98336.97;4967819;27;127127;-58
2021/11/27 00:26:22;;;;;;;;;;;;;;;11.20;52.71;98345.03;4985405;27;117168;-66
2021/11/27 00:28:48;;;;;;;;;;;;;;;11.21;52.85;98349.31;4985416;27;98327;-58
2021/11/27 00:31:19;;;;;;;;;;;;;;;11.20;52.42;98346.94;4985080;27;98947;-58
2021/11/27 00:33:45;;;;;;;;;;;;;;;11.20;52.79;98347.75;5003572;27;98126;-58
2021/11/27 00:36:11;;;;;;;;;;;;;;;11.17;52.53;98345.69;5003445;27;118155;-66
2021/11/27 00:38:37;;;;;;;;;;;;;;;11.17;52.89;98345.69;5003792;27;98343;-58
2021/11/27 00:41:03;;;;;;;;;;;;;;;11.15;52.91;98339.03;5003537;27;119014;-66
2021/11/27 00:43:29;;;;;;;;;;;;;;;11.13;52.22;98333.16;5002833;27;116965;-58
2021/11/27 00:45:55;;;;;;;;;;;;;;;11.12;52.57;98335.09;4986221;27;98119;-66
2021/11/27 00:48:21;;;;;;;;;;;;;;;11.10;52.52;98336.50;5002803;27;128060;-66
2021/11/27 00:50:55;;;;;;;;;;;;;;;11.07;52.65;98330.63;5004615;27;98590;-66
2021/11/27 00:53:21;;;;;;;;;;;;;;;11.05;52.24;98324.78;5004124;27;120768;-58
2021/11/27 00:55:47;;;;;;;;;;;;;;;11.04;52.51;98335.88;5003979;27;97989;-67
2021/11/27 00:58:13;;;;;;;;;;;;;;;11.02;52.71;98319.25;4986365;27;108219;-58
2021/11/27 01:01:01;;;;;;;;;;;;;;;11.01;52.58;98331.16;5003606;27;125876;-66
2021/11/27 01:03:28;;;;;;;;;;;;;;;10.99;52.72;98320.66;5003424;27;120842;-66
2021/11/27 01:05:57;;;;;;;;;;;;;;;10.97;52.42;98325.59;5004472;27;97795;-66
2021/11/27 01:08:23;;;;;;;;;;;;;;;10.95;52.45;98318.94;5003352;27;98943;-58
2021/11/27 01:10:53;;;;;;;;;;;;;;;10.94;52.63;98320.06;5004369;27;99289;-58
2021/11/27 01:13:19;;;;;;;;;;;;;;;10.92;52.83;98317.66;5003432;27;97778;-58
2021/11/27 01:15:45;;;;;;;;;;;;;;;10.91;52.67;98316.09;4985921;27;97872;-66
2021/11/27 01:18:11;;;;;;;;;;;;;;;10.88;52.25;98307.84;5002700;27;109282;-58
2021/11/27 01:20:40;;;;;;;;;;;;;;;10.87;52.91;98312.44;4984273;28;109274;-66
2021/11/27 01:23:07;;;;;;;;;;;;;;;10.86;52.88;98302.78;4992136;27;117239;-58
2021/11/27 01:25:33;;;;;;;;;;;;;;;10.84;52.46;98299.59;5004502;27;97897;-66
2021/11/27 01:27:58;;;;;;;;;;;;;;;10.82;52.38;98305.34;4982618;27;125182;-59
2021/11/27 01:30:25;;;;;;;;;;;;;;;10.81;52.93;98302.97;4963891;28;127136;-66
2021/11/27 01:32:51;;;;;;;;;;;;;;;10.79;52.60;98305.97;4963869;28;97836;-58
2021/11/27 01:35:17;;;;;;;;;;;;;;;10.78;52.36;98300.91;4995319;27;97845;-66
2021/11/27 01:37:43;;;;;;;;;;;;;;;10.76;52.42;98301.22;5002566;27;127988;-58
2021/11/27 01:40:21;;;;;;;;;;;;;;;10.75;52.94;98301.53;5003782;27;98286;-66
2021/11/27 01:42:47;;;;;;;;;;;;;;;10.73;52.57;98301.09;5002003;27;98795;-66
2021/11/27 01:45:14;;;;;;;;;;;;;;;10.72;52.57;98296.78;5003083;27;108902;-59
2021/11/27 01:47:41;;;;;;;;;;;;;;;10.71;52.42;98297.91;5003019;27;98477;-58
2021/11/27 01:50:07;;;;;;;;;;;;;;;10.68;52.65;98291.25;4985203;27;99022;-66
2021/11/27 01:52:33;;;;;;;;;;;;;;;10.67;52.92;98297.75;4981263;27;98014;-66
2021/11/27 01:55:00;;;;;;;;;;;;;;;10.67;52.98;98308.53;5004452;27;97705;-67
2021/11/27 01:57:26;;;;;;;;;;;;;;;10.66;52.88;98301.56;5003549;27;98708;-58
2021/11/27 01:59:52;;;;;;;;;;;;;;;10.65;52.52;98296.47;5002529;27;127221;-58
2021/11/27 02:02:18;;;;;;;;;;;;;;;10.64;52.21;98300.28;5001572;27;127424;-67
2021/11/27 02:04:44;;;;;;;;;;;;;;;10.63;52.58;98296.03;5002443;27;117274;-66
2021/11/27 02:07:10;;;;;;;;;;;;;;;10.63;53.12;98293.31;5001671;27;116513;-65
2021/11/27 02:09:36;;;;;;;;;;;;;;;10.61;52.42;98290.16;5002289;27;109740;-66
2021/11/27 02:12:04;;;;;;;;;;;;;;;10.59;52.23;98287.00;5001956;27;116505;-58
2021/11/27 02:14:30;;;;;;;;;;;;;;;10.56;52.05;98283.81;5001477;27;108918;-58
2021/11/27 02:16:56;;;;;;;;;;;;;;;10.57;52.91;98271.13;5001458;27;119728;-58
2021/11/27 02:19:22;;;;;;;;;;;;;;;10.56;52.17;98275.72;5002752;27;128736;-57
2021/11/27 02:21:48;;;;;;;;;;;;;;;10.56;52.84;98269.56;5000737;27;126868;-58
2021/11/27 02:24:15;;;;;;;;;;;;;;;10.55;52.92;98270.69;5003723;27;97919;-58
2021/11/27 02:26:42;;;;;;;;;;;;;;;10.54;52.80;98272.59;5001486;27;98157;-58
2021/11/27 02:29:10;;;;;;;;;;;;;;;10.52;52.25;98264.00;5001683;27;127413;-66
2021/11/27 02:31:36;;;;;;;;;;;;;;;10.52;52.36;98268.63;5001867;27;97774;-58
2021/11/27 02:34:02;;;;;;;;;;;;;;;10.51;52.74;98261.66;5003569;27;105406;-58
2021/11/27 02:36:28;;;;;;;;;;;;;;;10.50;52.12;98260.88;5001863;27;120084;-66
2021/11/27 02:38:56;;;;;;;;;;;;;;;10.49;52.87;98261.16;5001830;27;129938;-66
2021/11/27 02:41:21;;;;;;;;;;;;;;;10.48;52.48;98256.91;5001671;27;119323;-58
2021/11/27 02:43:47;;;;;;;;;;;;;;;10.47;52.25;98256.09;5001598;27;114591;-58
2021/11/27 02:46:13;;;;;;;;;;;;;;;10.46;52.44;98249.16;5001595;27;98218;-66
2021/11/27 02:48:40;;;;;;;;;;;;;;;10.46;52.21;98251.84;5002660;27;98530;-58
2021/11/27 02:51:06;;;;;;;;;;;;;;;10.45;52.81;98246.75;4983437;27;126106;-58
2021/11/27 02:53:32;;;;;;;;;;;;;;;10.45;52.88;98252.13;5000946;27;117490;-66
2021/11/27 02:55:58;;;;;;;;;;;;;;;10.44;52.51;98248.66;5000276;27;125781;-58
2021/11/27 02:58:24;;;;;;;;;;;;;;;10.44;52.33;98255.94;5001753;27;128173;-66
2021/11/27 03:00:50;;;;;;;;;;;;;;;10.42;52.24;98253.59;5001193;27;114364;-58
2021/11/27 03:03:16;;;;;;;;;;;;;;;10.41;52.37;98248.50;5002815;27;104037;-66
2021/11/27 03:05:42;;;;;;;;;;;;;;;10.42;52.03;98244.72;5001285;27;127677;-58
2021/11/27 03:08:08;;;;;;;;;;;;;;;10.40;52.34;98247.72;5001427;27;107417;-58
2021/11/27 03:10:34;;;;;;;;;;;;;;;10.39;52.84;98248.84;4982109;27;126941;-65
2021/11/27 03:13:00;;;;;;;;;;;;;;;10.36;52.78;98244.09;4967250;27;99351;-67
2021/11/27 03:15:26;;;;;;;;;;;;;;;10.37;53.03;98248.34;5002797;27;98218;-58
2021/11/27 03:17:52;;;;;;;;;;;;;;;10.37;52.62;98251.03;4982271;27;127588;-57
2021/11/27 03:20:18;;;;;;;;;;;;;;;10.36;52.75;98245.97;5004755;27;97947;-58
2021/11/27 03:22:44;;;;;;;;;;;;;;;10.35;52.55;98252.50;4984612;27;99349;-66
2021/11/27 03:25:10;;;;;;;;;;;;;;;10.33;52.50;98266.25;5005047;27;126169;-66
2021/11/27 03:27:39;;;;;;;;;;;;;;;10.33;52.40;98266.25;5004945;27;98531;-66
2021/11/27 03:30:07;;;;;;;;;;;;;;;10.32;52.60;98264.69;5006662;27;98384;-66
2021/11/27 03:32:33;;;;;;;;;;;;;;;10.31;52.76;98263.09;5005169;27;108680;-58
2021/11/27 03:34:59;;;;;;;;;;;;;;;10.31;52.93;98263.09;5004633;27;98805;-66
2021/11/27 03:37:25;;;;;;;;;;;;;;;10.30;52.52;98256.16;5004386;27;98686;-58
2021/11/27 03:39:51;;;;;;;;;;;;;;;10.28;52.63;98256.44;5004636;27;113891;-66
2021/11/27 03:42:17;;;;;;;;;;;;;;;10.28;52.32;98250.28;5004096;27;112676;-58
2021/11/27 03:44:44;;;;;;;;;;;;;;;10.27;52.53;98246.78;5005026;27;114397;-66
2021/11/27 03:47:10;;;;;;;;;;;;;;;10.27;52.88;98259.47;5004441;27;119686;-66
2021/11/27 03:49:36;;;;;;;;;;;;;;;10.25;52.10;98257.06;5004606;27;127462;-58
2021/11/27 03:52:02;;;;;;;;;;;;;;;10.24;52.82;98255.47;5004985;27;97980;-58
2021/11/27 03:54:28;;;;;;;;;;;;;;;10.24;52.59;98254.69;5004984;27;112266;-57
2021/11/27 03:56:54;;;;;;;;;;;;;;;10.23;52.02;98247.72;5003075;27;127327;-58
2021/11/27 03:59:20;;;;;;;;;;;;;;;10.22;52.61;98248.84;4986274;27;98220;-58
2021/11/27 04:01:46;;;;;;;;;;;;;;;10.20;52.39;98251.81;4986646;27;98009;-66
2021/11/27 04:04:12;;;;;;;;;;;;;;;10.20;52.64;98256.44;5004555;27;118605;-58
2021/11/27 04:06:38;;;;;;;;;;;;;;;10.19;52.72;98258.31;5001077;27;128482;-58
2021/11/27 04:09:06;;;;;;;;;;;;;;;10.19;52.77;98246.78;5004082;27;98211;-66
2021/11/27 04:11:32;;;;;;;;;;;;;;;10.17;52.47;98232.81;5004856;27;97732;-58
2021/11/27 04:13:58;;;;;;;;;;;;;;;10.16;52.59;98237.41;5003919;27;99758;-58
2021/11/27 04:16:24;;;;;;;;;;;;;;;10.15;52.25;98241.22;5002996;27;100003;-66
2021/11/27 04:18:50;;;;;;;;;;;;;;;10.15;51.99;98237.75;5003147;27;127300;-66
2021/11/27 04:21:18;;;;;;;;;;;;;;;10.14;52.41;98241.53;4968488;27;119262;-58
2021/11/27 04:23:44;;;;;;;;;;;;;;;10.13;51.74;98237.25;4986471;27;98612;-58
2021/11/27 04:26:10;;;;;;;;;;;;;;;10.12;52.47;98239.16;5003892;27;128233;-58
2021/11/27 04:28:36;;;;;;;;;;;;;;;10.12;52.44;98246.44;5004236;27;98060;-66
2021/11/27 04:31:02;;;;;;;;;;;;;;;10.09;52.00;98243.28;5002856;27;109330;-58
2021/11/27 04:33:28;;;;;;;;;;;;;;;10.11;52.59;98253.75;5002665;27;119084;-58
2021/11/27 04:35:54;;;;;;;;;;;;;;;10.09;52.59;98251.34;5003136;27;123903;-66
2021/11/27 04:38:20;;;;;;;;;;;;;;;10.09;52.42;98255.94;5004753;27;98421;-58
2021/11/27 04:40:46;;;;;;;;;;;;;;;10.09;51.92;98264.81;5003697;27;118272;-58
2021/11/27 04:43:12;;;;;;;;;;;;;;;10.07;52.46;98261.66;5003334;27;127954;-58
2021/11/27 04:45:38;;;;;;;;;;;;;;;10.08;52.39;98262.44;5003184;27;128277;-58
2021/11/27 04:48:04;;;;;;;;;;;;;;;10.08;52.20;98262.44;5002961;27;127820;-66
2021/11/27 04:50:31;;;;;;;;;;;;;;;10.06;52.43;98257.38;5004483;27;119113;-58
2021/11/27 04:52:57;;;;;;;;;;;;;;;10.05;52.41;98260.38;5003010;27;121135;-58
2021/11/27 04:55:23;;;;;;;;;;;;;;;10.03;52.66;98258.00;5004208;27;99047;-66
2021/11/27 04:57:48;;;;;;;;;;;;;;;10.03;52.49;98254.53;5002620;27;97986;-58
2021/11/27 05:00:23;;;;;;;;;;;;;;;10.02;52.30;98259.13;5003335;27;97979;-58
2021/11/27 05:02:49;;;;;;;;;;;;;;;10.02;52.69;98258.31;4984434;27;117353;-58
2021/11/27 05:05:16;;;;;;;;;;;;;;;10.00;52.44;98258.66;5003697;27;105920;-66
2021/11/27 05:07:42;;;;;;;;;;;;;;;10.00;52.22;98265.94;5003968;27;97812;-65
2021/11/27 05:10:09;;;;;;;;;;;;;;;9.98;52.57;98263.56;5004308;27;97656;-66
2021/11/27 05:12:34;;;;;;;;;;;;;;;9.98;52.10;98254.66;5004264;27;98923;-58
2021/11/27 05:15:01;;;;;;;;;;;;;;;9.97;52.70;98251.19;5005530;27;98588;-58
2021/11/27 05:17:27;;;;;;;;;;;;;;;9.97;52.27;98247.72;5003571;27;97901;-58
2021/11/27 05:19:52;;;;;;;;;;;;;;;9.95;52.00;98245.34;5005024;27;97653;-67
2021/11/27 05:22:18;;;;;;;;;;;;;;;9.95;52.68;98250.72;5002410;27;118461;-58
2021/11/27 05:24:44;;;;;;;;;;;;;;;9.95;52.41;98250.72;5002962;27;127431;-58
2021/11/27 05:27:14;;;;;;;;;;;;;;;9.94;52.40;98253.72;5002488;27;126481;-66
2021/11/27 05:29:41;;;;;;;;;;;;;;;9.94;52.82;98251.03;5002536;27;109995;-58
2021/11/27 05:32:09;;;;;;;;;;;;;;;9.94;52.88;98253.72;5003601;27;99146;-66
2021/11/27 05:34:35;;;;;;;;;;;;;;;9.93;52.20;98249.44;5002648;27;99254;-58
2021/11/27 05:37:05;;;;;;;;;;;;;;;9.92;51.96;98256.75;5002429;27;118701;-58
2021/11/27 05:39:30;;;;;;;;;;;;;;;9.92;52.37;98256.75;5003918;27;97781;-58
2021/11/27 05:41:56;;;;;;;;;;;;;;;9.93;52.19;98249.44;4999847;27;120262;-58
2021/11/27 05:44:22;;;;;;;;;;;;;;;9.90;52.53;98253.56;5002541;27;99088;-58
2021/11/27 05:46:48;;;;;;;;;;;;;;;9.91;52.22;98249.78;5001486;27;127814;-66
2021/11/27 05:49:14;;;;;;;;;;;;;;;9.92;52.55;98250.56;5003626;27;116577;-58
2021/11/27 05:51:40;;;;;;;;;;;;;;;9.91;52.19;98259.75;5001537;27;128388;-58
2021/11/27 05:54:06;;;;;;;;;;;;;;;9.91;52.12;98255.16;5002932;27;128159;-66
2021/11/27 05:56:32;;;;;;;;;;;;;;;9.91;52.75;98257.06;5002097;27;98619;-66
2021/11/27 05:58:58;;;;;;;;;;;;;;;9.90;51.72;98248.19;5003947;27;98543;-66
2021/11/27 06:01:24;;;;;;;;;;;;;;;9.90;52.22;98240.09;4985543;27;98607;-67
2021/11/27 06:03:50;;;;;;;;;;;;;;;9.90;52.32;98228.56;5002397;27;129376;-66
2021/11/27 06:06:16;;;;;;;;;;;;;;;9.89;52.17;98230.44;5003422;27;113610;-66
2021/11/27 06:08:42;;;;;;;;;;;;;;;9.90;52.53;98233.94;4968351;27;97772;-66
2021/11/27 06:11:08;;;;;;;;;;;;;;;9.90;52.40;98245.47;4983637;27;128391;-66
2021/11/27 06:13:34;;;;;;;;;;;;;;;9.89;52.04;98249.28;5002231;27;109787;-65
2021/11/27 06:16:06;;;;;;;;;;;;;;;9.88;52.24;98247.72;5002197;27;126683;-66
2021/11/27 06:18:33;;;;;;;;;;;;;;;9.88;52.42;98258.47;5003884;27;98306;-65
2021/11/27 06:21:01;;;;;;;;;;;;;;;9.89;52.55;98262.75;5003446;27;98823;-66
2021/11/27 06:23:27;;;;;;;;;;;;;;;9.89;52.79;98265.44;5002948;27;99068;-65
2021/11/27 06:25:54;;;;;;;;;;;;;;;9.89;52.72;98270.03;5003353;27;97887;-66
2021/11/27 06:28:21;;;;;;;;;;;;;;;9.89;53.01;98268.13;5003343;27;97781;-66
2021/11/27 06:30:47;;;;;;;;;;;;;;;9.89;52.65;98268.13;5002531;27;98459;-66
2021/11/27 06:33:13;;;;;;;;;;;;;;;9.89;52.44;98278.91;5003440;27;97864;-65
2021/11/27 06:35:39;;;;;;;;;;;;;;;9.88;51.94;98285.38;5002336;27;98503;-66
2021/11/27 06:38:05;;;;;;;;;;;;;;;9.89;51.85;98286.19;5002904;27;97929;-66
2021/11/27 06:40:30;;;;;;;;;;;;;;;9.90;52.24;98290.44;5002545;27;98286;-67
2021/11/27 06:43:00;;;;;;;;;;;;;;;9.91;52.07;98292.84;5002690;27;118777;-66
2021/11/27 06:45:27;;;;;;;;;;;;;;;9.90;52.15;98293.94;5001501;27;97907;-67
2021/11/27 06:47:52;;;;;;;;;;;;;;;9.90;51.84;98295.81;4981550;27;98171;-58
2021/11/27 06:50:18;;;;;;;;;;;;;;;9.91;52.19;98309.00;4998375;27;127847;-58
2021/11/27 06:52:44;;;;;;;;;;;;;;;9.92;52.36;98309.78;4998246;27;117036;-58
2021/11/27 06:55:10;;;;;;;;;;;;;;;9.91;52.17;98310.88;4999475;27;98136;-58
2021/11/27 06:57:36;;;;;;;;;;;;;;;9.91;52.43;98317.06;4998840;27;98157;-57
2021/11/27 07:00:07;;;;;;;;;;;;;;;9.92;52.41;98312.47;4996287;27;126803;-58
2021/11/27 07:02:33;;;;;;;;;;;;;;;9.91;52.47;98309.00;4998494;27;98682;-58
2021/11/27 07:04:59;;;;;;;;;;;;;;;9.93;52.33;98303.28;4998980;27;128342;-66
2021/11/27 07:07:25;;;;;;;;;;;;;;;9.94;52.24;98302.16;4980217;27;98347;-58
2021/11/27 07:09:51;;;;;;;;;;;;;;;9.95;52.36;98312.63;4999127;27;98044;-66
2021/11/27 07:12:17;;;;;;;;;;;;;;;9.96;52.28;98316.91;5000092;27;98744;-65
2021/11/27 07:14:43;;;;;;;;;;;;;;;9.99;52.07;98320.88;4998779;27;122291;-58
2021/11/27 07:17:09;;;;;;;;;;;;;;;10.00;52.30;98314.38;4978242;27;114378;-58
2021/11/27 07:19:35;;;;;;;;;;;;;;;10.03;51.91;98311.06;4997202;27;127997;-66
2021/11/27 07:22:01;;;;;;;;;;;;;;;10.07;52.23;98314.72;4997620;27;128316;-67
2021/11/27 07:24:27;;;;;;;;;;;;;;;10.13;51.90;98309.94;4998306;27;126986;-66
2021/11/27 07:26:53;;;;;;;;;;;;;;;10.17;52.14;98308.19;4980182;27;98090;-58
2021/11/27 07:29:19;;;;;;;;;;;;;;;10.21;51.78;98303.78;4997827;27;129025;-66
2021/11/27 07:31:45;;;;;;;;;;;;;;;10.26;52.42;98309.06;4996255;27;129065;-57
2021/11/27 07:34:11;;;;;;;;;;;;;;;10.31;52.12;98317.75;4992542;27;107774;-58
2021/11/27 07:36:37;;;;;;;;;;;;;;;10.40;51.74;98314.25;4997380;27;104798;-66
2021/11/27 07:39:04;;;;;;;;;;;;;;;10.50;51.82;98313.94;4998266;27;98354;-67
2021/11/27 07:41:30;;;;;;;;;;;;;;;10.62;51.15;98310.59;4996805;27;98438;-57
2021/11/27 07:43:56;;;;;;;;;;;;;;;10.74;51.61;98308.84;4996162;27;110948;-57
2021/11/27 07:46:22;;;;;;;;;;;;;;;10.91;51.23;98320.69;4997195;27;98148;-58
2021/11/27 07:48:48;;;;;;;;;;;;;;;11.13;50.74;98320.47;4991984;27;98460;-58
2021/11/27 07:51:14;;;;;;;;;;;;;;;11.41;50.42;98320.84;4996109;27;98920;-58
2021/11/27 07:53:41;;;;;;;;;;;;;;;11.82;50.04;98308.56;4997218;27;98170;-58
2021/11/27 07:56:08;;;;;;;;;;;;;;;12.16;49.63;98304.06;4996397;27;98484;-58
2021/11/27 07:58:34;;;;;;;;;;;;;;;12.59;49.35;98289.41;4996866;27;98408;-58
2021/11/27 08:00:59;;;;;;;;;;;;;;;13.06;48.85;98279.06;4996297;27;126922;-58
2021/11/27 08:03:25;;;;;;;;;;;;;;;13.60;48.11;98281.59;4995918;27;128072;-58
2021/11/27 08:05:51;;;;;;;;;;;;;;;14.10;47.85;98282.28;4998009;27;117708;-58
2021/11/27 08:08:17;;;;;;;;;;;;;;;14.58;47.64;98275.13;5000018;27;98293;-58
2021/11/27 08:10:43;;;;;;;;;;;;;;;15.07;47.21;98283.78;5001228;27;98312;-58
2021/11/27 08:13:09;;;;;;;;;;;;;;;15.49;46.88;98285.19;4999369;27;98260;-58
2021/11/27 08:15:35;;;;;;;;;;;;;;;15.92;46.88;98282.34;4999534;27;119154;-59
2021/11/27 08:18:01;;;;;;;;;;;;;;;16.52;46.37;98278.50;4998480;27;128051;-59
2021/11/27 08:20:27;;;;;;;;;;;;;;;17.31;45.60;98280.72;5000615;27;98461;-58
2021/11/27 08:22:53;;;;;;;;;;;;;;;18.33;44.34;98272.44;4980363;27;118560;-58
2021/11/27 08:25:19;;;;;;;;;;;;;;;19.51;42.68;98279.09;4981409;27;104405;-58
2021/11/27 08:27:45;;;;;;;;;;;;;;;20.43;41.82;98296.41;4999626;27;98640;-59
2021/11/27 08:30:11;;;;;;;;;;;;;;;21.05;41.10;98309.91;4999512;27;117196;-58
2021/11/27 08:32:37;;;;;;;;;;;;;;;21.41;41.09;98301.75;4994718;27;97912;-58
2021/11/27 08:35:04;;;;;;;;;;;;;;;21.54;41.16;98295.50;4999264;27;119162;-58
2021/11/27 08:37:30;;;;;;;;;;;;;;;21.56;41.61;98286.88;4998441;27;108377;-59
2021/11/27 08:39:57;;;;;;;;;;;;;;;21.58;41.82;98292.00;4981859;27;99223;-58
2021/11/27 08:42:23;;;;;;;;;;;;;;;21.75;41.99;98291.97;4998641;27;118321;-59
2021/11/27 08:44:49;;;;;;;;;;;;;;;21.80;42.23;98293.50;5000312;27;97788;-58
2021/11/27 08:47:15;;;;;;;;;;;;;;;21.00;43.75;98302.09;4997650;27;129041;-59
2021/11/27 08:49:41;;;;;;;;;;;;;;;20.71;44.06;98306.69;4999360;27;98774;-58
2021/11/27 08:52:07;;;;;;;;;;;;;;;19.83;45.56;98319.53;4999650;27;117341;-58
2021/11/27 08:54:33;;;;;;;;;;;;;;;19.46;46.02;98311.44;4999253;27;115826;-58
2021/11/27 08:56:59;;;;;;;;;;;;;;;19.35;45.78;98306.66;4998838;27;129498;-59
2021/11/27 08:59:25;;;;;;;;;;;;;;;19.27;46.22;98312.44;4998119;27;128183;-58
2021/11/27 09:01:52;;;;;;;;;;;;;;;19.27;46.04;98309.72;4999077;27;97862;-59
2021/11/27 09:04:18;;;;;;;;;;;;;;;19.17;46.20;98315.84;5000749;27;98338;-58
2021/11/27 09:06:44;;;;;;;;;;;;;;;19.46;45.76;98320.41;4998840;27;98291;-58
2021/11/27 09:09:10;;;;;;;;;;;;;;;19.21;46.51;98325.66;4999354;27;97937;-58
2021/11/27 09:11:36;;;;;;;;;;;;;;;18.99;46.71;98334.81;4998523;27;127225;-58
2021/11/27 09:14:03;;;;;;;;;;;;;;;18.68;47.34;98336.00;4999829;27;97920;-58
2021/11/27 09:16:29;;;;;;;;;;;;;;;18.35;47.96;98349.25;4998750;27;112326;-58
2021/11/27 09:18:54;;;;;;;;;;;;;;;18.05;48.36;98345.69;4998686;27;128480;-59
2021/11/27 09:21:20;;;;;;;;;;;;;;;17.79;48.40;98339.06;4998716;27;127867;-59
2021/11/27 09:23:46;;;;;;;;;;;;;;;17.66;48.67;98332.22;4999411;27;97966;-58
2021/11/27 09:26:12;;;;;;;;;;;;;;;17.61;48.57;98329.81;4996921;27;128239;-58
2021/11/27 09:28:38;;;;;;;;;;;;;;;17.65;48.56;98325.22;4999597;27;98916;-59
2021/11/27 09:31:04;;;;;;;;;;;;;;;17.53;48.49;98326.19;4999662;27;117005;-67
2021/11/27 09:33:30;;;;;;;;;;;;;;;17.40;48.83;98333.75;4998894;27;116620;-58
2021/11/27 09:36:02;;;;;;;;;;;;;;;17.30;49.03;98326.22;4980967;27;98678;-65
2021/11/27 09:38:28;;;;;;;;;;;;;;;17.20;49.31;98332.25;4981786;27;98525;-58
2021/11/27 09:41:17;;;;;;;;;;;;;;;17.07;49.59;98334.34;4963944;27;100567;-58
2021/11/27 09:43:44;;;;;;;;;;;;;;;16.85;49.90;98337.81;4999699;27;97832;-66
2021/11/27 09:46:11;;;;;;;;;;;;;;;16.63;50.11;98337.41;4999750;27;98021;-66
2021/11/27 09:48:40;;;;;;;;;;;;;;;16.58;50.02;98342.31;5000382;27;99692;-58
2021/11/27 09:51:09;;;;;;;;;;;;;;;16.59;50.13;98338.47;4981022;27;98128;-66
2021/11/27 09:53:36;;;;;;;;;;;;;;;16.56;50.17;98329.09;5000148;27;97933;-58
2021/11/27 09:56:02;;;;;;;;;;;;;;;16.53;50.17;98323.56;4999642;27;98034;-66
2021/11/27 09:58:28;;;;;;;;;;;;;;;16.47;50.07;98328.53;4999864;27;98526;-59
2021/11/27 10:00:55;;;;;;;;;;;;;;;16.39;50.31;98322.16;4999344;27;118636;-58
2021/11/27 10:03:21;;;;;;;;;;;;;;;16.29;50.66;98341.72;4979657;27;103718;-66
2021/11/27 10:05:47;;;;;;;;;;;;;;;16.17;50.62;98331.78;4998490;27;115848;-58
2021/11/27 10:08:13;;;;;;;;;;;;;;;16.03;50.80;98339.59;4979799;27;125496;-66
2021/11/27 10:10:39;;;;;;;;;;;;;;;15.88;51.20;98335.81;4999933;27;98061;-58
2021/11/27 10:13:05;;;;;;;;;;;;;;;15.79;51.47;98337.13;4979871;27;117949;-58
2021/11/27 10:15:31;;;;;;;;;;;;;;;15.66;51.35;98331.78;4998438;27;127197;-66
2021/11/27 10:17:57;;;;;;;;;;;;;;;15.55;51.47;98336.13;4998210;27;118271;-58
2021/11/27 10:20:24;;;;;;;;;;;;;;;15.45;51.48;98332.03;4978843;27;128014;-66
2021/11/27 10:22:51;;;;;;;;;;;;;;;15.37;51.92;98333.00;4999933;27;98052;-58
2021/11/27 10:25:43;;;;;;;;;;;;;;;15.31;51.58;98328.19;4999328;27;100405;-66
2021/11/27 10:28:14;;;;;;;;;;;;;;;15.22;51.72;98326.44;4998674;27;98366;-66
2021/11/27 10:30:52;;;;;;;;;;;;;;;15.18;52.07;98319.34;4999936;27;98148;-66
2021/11/27 10:33:18;;;;;;;;;;;;;;;15.12;51.81;98321.50;4982255;27;97915;-66
2021/11/27 10:35:55;;;;;;;;;;;;;;;15.04;51.87;98325.19;4997537;27;99002;-66
2021/11/27 10:38:21;;;;;;;;;;;;;;;15.01;52.08;98327.78;4999421;27;99009;-66
2021/11/27 10:40:57;;;;;;;;;;;;;;;15.00;51.87;98328.94;4998422;27;98690;-66
2021/11/27 10:43:23;;;;;;;;;;;;;;;14.99;52.30;98322.72;4999199;27;98072;-58
2021/11/27 10:45:49;;;;;;;;;;;;;;;15.02;52.29;98334.81;4997724;27;125772;-58
2021/11/27 10:48:17;;;;;;;;;;;;;;;15.04;52.12;98332.53;4998415;27;101672;-58
2021/11/27 10:50:58;;;;;;;;;;;;;;;15.02;52.06;98341.03;4996951;27;98615;-58
2021/11/27 10:53:33;;;;;;;;;;;;;;;15.01;52.09;98334.00;4999425;27;98017;-58
2021/11/27 10:56:05;;;;;;;;;;;;;;;14.98;52.24;98337.44;4992304;27;98846;-58
2021/11/27 10:58:32;;;;;;;;;;;;;;;14.93;52.32;98330.34;4997617;27;98479;-58
2021/11/27 11:00:58;;;;;;;;;;;;;;;14.87;52.37;98323.56;4998058;27;97896;-58
2021/11/27 11:03:35;;;;;;;;;;;;;;;14.82;52.40;98326.56;4996636;27;113438;-58
2021/11/27 11:06:17;;;;;;;;;;;;;;;14.73;52.72;98323.97;4979711;27;98930;-58
2021/11/27 11:08:43;;;;;;;;;;;;;;;14.65;52.99;98332.25;4997065;27;98549;-58
2021/11/27 11:11:24;;;;;;;;;;;;;;;14.58;53.02;98323.94;4978216;27;127789;-58
2021/11/27 11:13:57;;;;;;;;;;;;;;;14.49;53.27;98326.78;4997712;27;98186;-58
2021/11/27 11:16:25;;;;;;;;;;;;;;;14.41;53.19;98336.59;4997477;27;98178;-58
2021/11/27 11:18:52;;;;;;;;;;;;;;;14.34;53.26;98341.81;4998516;27;98784;-58
2021/11/27 11:21:18;;;;;;;;;;;;;;;14.27;53.22;98336.22;4997848;27;98403;-58
2021/11/27 11:23:44;;;;;;;;;;;;;;;14.18;53.56;98338.25;4998898;27;98038;-59
2021/11/27 11:26:12;;;;;;;;;;;;;;;14.10;53.30;98341.88;4995634;27;125922;-58
2021/11/27 11:28:42;;;;;;;;;;;;;;;14.04;53.35;98348.69;4997179;27;98671;-58
2021/11/27 11:31:14;;;;;;;;;;;;;;;13.96;53.43;98343.03;4997055;27;98041;-58
2021/11/27 11:33:41;;;;;;;;;;;;;;;13.91;53.66;98348.69;4997144;27;97749;-58
2021/11/27 11:36:09;;;;;;;;;;;;;;;13.86;53.59;98348.91;4996921;27;98254;-58
2021/11/27 11:38:35;;;;;;;;;;;;;;;13.82;53.67;98347.22;4996760;27;98981;-58
2021/11/27 11:41:01;;;;;;;;;;;;;;;13.78;53.57;98346.31;5000759;27;117658;-66
2021/11/27 11:43:27;;;;;;;;;;;;;;;13.74;53.98;98343.50;5001957;27;118485;-66
2021/11/27 11:45:53;;;;;;;;;;;;;;;13.71;53.56;98353.06;5001853;27;98253;-66
2021/11/27 11:48:27;;;;;;;;;;;;;;;13.68;53.57;98345.66;5002210;27;98926;-58
2021/11/27 11:51:03;;;;;;;;;;;;;;;13.66;53.56;98342.47;4982502;27;116636;-66
2021/11/27 11:53:45;;;;;;;;;;;;;;;13.64;53.80;98347.47;4983086;27;98055;-57
2021/11/27 11:56:11;;;;;;;;;;;;;;;13.62;53.81;98341.56;4983126;27;98510;-58
2021/11/27 11:58:41;;;;;;;;;;;;;;;13.63;54.01;98339.66;5001460;27;99161;-66
2021/11/27 12:01:14;;;;;;;;;;;;;;;13.63;53.54;98336.94;5001768;27;98708;-65
2021/11/27 12:03:41;;;;;;;;;;;;;;;13.63;53.60;98340.44;5001733;27;97687;-58
2021/11/27 12:06:12;;;;;;;;;;;;;;;13.63;53.96;98336.94;4982595;27;115166;-58
2021/11/27 12:08:51;;;;;;;;;;;;;;;13.61;53.92;98337.31;5001191;27;98317;-66
2021/11/27 12:11:45;;;;;;;;;;;;;;;13.60;54.01;98337.66;5001182;27;97986;-66
2021/11/27 12:14:24;;;;;;;;;;;;;;;13.57;53.56;98330.19;5002775;27;98901;-58
2021/11/27 12:17:19;;;;;;;;;;;;;;;13.56;54.02;98323.19;5000984;27;98930;-66
2021/11/27 12:19:55;;;;;;;;;;;;;;;13.57;53.76;98333.69;4999524;27;98581;-58
2021/11/27 12:22:23;;;;;;;;;;;;;;;13.63;54.11;98321.50;4979402;28;98080;-66
2021/11/27 12:25:08;;;;;;;;;;;;;;;13.68;53.66;98332.13;5001184;27;98103;-58
2021/11/27 12:27:44;;;;;;;;;;;;;;;13.73;53.62;98331.88;4994590;27;98525;-58
2021/11/27 12:30:10;;;;;;;;;;;;;;;13.78;53.75;98330.06;4983128;27;117371;-58
2021/11/27 12:32:40;;;;;;;;;;;;;;;13.81;53.61;98332.91;4998942;27;122933;-58
2021/11/27 12:35:30;;;;;;;;;;;;;;;13.87;53.80;98338.84;5001414;27;97902;-58
2021/11/27 12:38:08;;;;;;;;;;;;;;;13.90;53.85;98332.75;5000843;27;98977;-66
2021/11/27 12:40:36;;;;;;;;;;;;;;;13.90;53.40;98340.88;4994894;27;98197;-58
2021/11/27 12:43:12;;;;;;;;;;;;;;;13.88;53.86;98340.47;5001039;27;98153;-58
2021/11/27 12:45:40;;;;;;;;;;;;;;;13.87;53.77;98336.16;4991909;27;108438;-66